• Join FlightAware (Why Join?)
  • Login
  • US Flag 
06:02PM EDT


 

Airport Tracker/Info


-or-


 

Live Flight TrackerFlight Track Log ✈ QTR536 ✈ 08-Aug-2012 ✈ HUEN / EBB - HRYR / KGL

Flight Track Log - Related Links

Times and Time Zones

All times are in EDT time to prevent confusion due to time zone crossing. See the QTR536 flight status page for this flight to view local times or setup timezone preferences in your user account.

Time Position Orientation Groundspeed Altitude Reporting Facility
EDT Latitude Longitude Course Direction KTS MPH feet Rate Location/Type
07:24AM -0.1736 32.1962 229° Southwest  Level Estimated
07:25AM -0.2456 32.1137 229° Southwest  Level Estimated
07:26AM -0.3177 32.0313 229° Southwest  Level Estimated
07:27AM -0.3897 31.9488 229° Southwest  Level Estimated
07:28AM -0.4617 31.8664 229° Southwest  Level Estimated
07:29AM -0.5337 31.7839 229° Southwest  Level Estimated
07:30AM -0.6057 31.7015 229° Southwest  Level Estimated
07:31AM -0.6777 31.6190 229° Southwest  Level Estimated
07:32AM -0.7497 31.5365 229° Southwest  Level Estimated
07:33AM -0.8217 31.4541 229° Southwest  Level Estimated
07:34AM -0.8937 31.3716 229° Southwest  Level Estimated
07:35AM -0.9657 31.2891 229° Southwest  Level Estimated
07:36AM -1.0376 31.2067 229° Southwest  Level Estimated
07:37AM -1.1096 31.1242 229° Southwest  Level Estimated
07:38AM -1.1816 31.0417 229° Southwest  Level Estimated
07:39AM -1.2536 30.9592 229° Southwest  Level Estimated
07:40AM -1.3256 30.8767 229° Southwest  Level Estimated
07:41AM -1.3976 30.7942 229° Southwest  Level Estimated
07:42AM -1.4696 30.7117 229° Southwest  Level Estimated
07:43AM -1.5415 30.6292 229° Southwest  Level Estimated
07:44AM -1.6135 30.5467 229° Southwest  Level Estimated
07:45AM -1.6855 30.4642 229° Southwest  Level Estimated
07:46AM -1.7574 30.3817 229° Southwest  Level Estimated
07:47AM -1.8294 30.2992 229° Southwest  Level Estimated
07:48AM -1.9014 30.2166 229° Southwest  Level Estimated
07:49AM -1.9733 30.1341 49° Northeast  Level Estimated
07:50AM -1.9014 30.2166 229° Southwest  Level Estimated
07:51AM -1.9733 30.1341 49° Northeast  Level Estimated
07:52AM -1.9014 30.2166 229° Southwest  Level Estimated
07:53AM -1.9733 30.1341 49° Northeast  Level Estimated
07:54AM -1.9014 30.2166 229° Southwest  Level Estimated
07:55AM -1.9733 30.1341 49° Northeast  Level Estimated
07:56AM -1.9014 30.2166 229° Southwest  Level Estimated
07:57AM -1.9733 30.1341 49° Northeast  Level Estimated
07:58AM -1.9014 30.2166 229° Southwest  Level Estimated
07:59AM -1.9733 30.1341 49° Northeast  Level Estimated
08:00AM -1.9014 30.2166 229° Southwest  Level Estimated
08:01AM -1.9733 30.1341 49° Northeast  Level Estimated
08:02AM -1.9014 30.2166 229° Southwest  Level Estimated
08:03AM -1.9733 30.1341 49° Northeast  Level Estimated
08:04AM -1.9014 30.2166 229° Southwest  Level Estimated
08:05AM -1.9733 30.1341 229° Southwest  Level Estimated